Latest Weather Observations for Hartz Mountains

IDT60801

Issued at 6:01 pm EST Sunday 1 May 2016 (issued every 30 minutes, with the page automatically refreshed every 10 minutes)

About weather observations | Map of weather stations | Latest weather observations for TAS | Other Formats
Station Details ID: 094191 Name: HARTZ MOUNTAIN (KEOGHS PIMPLE) Lat: -43.20 Lon: 146.77 Height: 831.0 m
Data from the previous 72 hours. | See also: Recent months at Hartz Mountains
Date/Time
EST
Temp
°C
App
Temp
°C
Dew
Point
Rel
Hum
%
Delta-T
°C
Wind Press
QNH
hPa
Press
MSL
hPa
Rain
since 9 am
mm
Dir
 
Spd
km/h
Gust
km/h
Spd
kts
Gust
kts
01/06:00pm 4.9 -8.7 4.6 98 0.1 WSW 65 83 35 45 - - 4.2
01/05:30pm 5.3 -9.1 4.9 97 0.2 WSW 70 109 38 59 - - 4.0
01/05:23pm 5.6 -8.6 5.2 97 0.2 WSW 69 107 37 58 - - 4.0
01/05:18pm 5.7 -7.3 5.3 97 0.2 WSW 63 95 34 51 - - 3.8
01/05:16pm 6.0 -7.3 5.6 97 0.2 WSW 65 98 35 53 - - 3.8
01/05:14pm 5.9 -8.2 5.5 97 0.2 WSW 69 98 37 53 - - 3.8
01/05:08pm 6.2 -8.1 5.8 97 0.2 WSW 70 104 38 56 - - 3.8
01/05:02pm 6.4 -5.7 6.0 97 0.2 WSW 59 104 32 56 - - 3.8
01/05:00pm 6.5 -5.2 6.1 97 0.2 WSW 57 80 31 43 - - 3.8
01/04:48pm 6.7 -6.5 6.1 96 0.3 WSW 65 100 35 54 - - 3.6
01/04:46pm 6.7 -6.5 6.1 96 0.3 WSW 65 100 35 54 - - 3.6
01/04:39pm 7.0 -3.3 6.4 96 0.3 WSW 50 100 27 54 - - 3.6
01/04:38pm 7.2 -2.7 6.6 96 0.3 WSW 48 89 26 48 - - 3.4
01/04:37pm 7.3 -2.2 6.9 97 0.2 WSW 46 65 25 35 - - 3.4
01/04:30pm 7.5 -1.5 7.1 97 0.2 WSW 44 61 24 33 - - 3.4
01/04:28pm 7.5 -1.3 7.1 97 0.2 WSW 43 61 23 33 - - 3.4
01/04:00pm 7.8 0.5 7.2 96 0.3 WSW 35 46 19 25 - - 2.6
01/03:30pm 8.2 1.9 7.6 96 0.3 WSW 30 43 16 23 - - 2.6
01/03:00pm 8.8 4.0 7.4 91 0.7 WSW 22 30 12 16 - - 2.0
01/02:30pm 9.2 5.3 7.3 88 0.9 SW 17 22 9 12 - - 2.0
01/02:00pm 8.9 4.6 7.2 89 0.8 WSW 19 26 10 14 - - 2.0
01/01:30pm 9.1 5.0 7.9 92 0.6 WSW 19 26 10 14 - - 2.0
01/01:00pm 10.1 9.1 9.0 93 0.6 NNW 4 9 2 5 - - 2.0
01/12:30pm 9.2 7.5 8.4 95 0.4 N 7 13 4 7 - - 2.0
01/12:00pm 9.1 7.0 8.3 95 0.4 N 9 19 5 10 - - 2.0
01/11:30am 8.5 5.5 7.6 94 0.4 NNW 13 22 7 12 - - 2.0
01/11:00am 8.1 4.9 7.0 93 0.5 N 13 19 7 10 - - 2.0
01/10:30am 8.2 5.1 7.3 94 0.4 NNE 13 24 7 13 - - 2.0
01/10:00am 8.1 6.1 7.3 95 0.4 N 7 11 4 6 - - 1.4
01/09:30am 8.0 6.0 7.2 95 0.4 WNW 7 13 4 7 - - 0.8
01/09:00am 8.1 5.7 7.2 94 0.4 NNW 9 13 5 7 - - 13.6
01/08:30am 8.1 3.9 7.3 95 0.4 WNW 19 22 10 12 - - 12.6
01/08:00am 8.4 4.3 7.8 96 0.3 W 19 26 10 14 - - 11.6
01/07:30am 8.8 3.4 8.2 96 0.3 WSW 26 37 14 20 - - 9.8
01/07:28am 8.8 4.2 8.2 96 0.3 W 22 35 12 19 - - 9.8
01/07:00am 9.2 6.4 8.6 96 0.3 SE 13 17 7 9 - - 1.6
01/06:30am 8.9 6.0 8.3 96 0.3 ENE 13 19 7 10 - - 0.6
01/06:00am 8.6 5.6 7.7 94 0.4 NE 13 19 7 10 - - 0.4
01/05:30am 9.6 7.3 7.5 87 1.0 NNW 9 13 5 7 - - 0.2
01/05:00am 9.8 6.8 7.6 86 1.1 NNW 13 20 7 11 - - 0.0
01/04:30am 9.3 6.9 6.9 85 1.2 NNW 9 17 5 9 - - 0.0
01/04:00am 9.5 7.1 6.8 83 1.3 N 9 15 5 8 - - 0.0
01/03:30am 9.3 5.7 6.6 83 1.3 NNW 15 20 8 11 - - 0.0
01/03:00am 9.4 6.5 6.3 81 1.5 N 11 17 6 9 - - 0.0
01/02:30am 9.7 6.3 5.9 77 1.8 N 13 20 7 11 - - 0.0
01/02:00am 9.7 6.3 5.7 76 1.9 N 13 17 7 9 - - 0.0
01/01:30am 9.9 5.2 5.9 76 1.9 NNW 20 26 11 14 - - 0.0
01/01:00am 9.9 4.4 5.9 76 1.9 NW 24 32 13 17 - - 0.0
01/12:30am 9.9 5.4 5.9 76 1.9 NW 19 26 10 14 - - 0.0
01/12:00am 10.2 4.0 6.0 75 2.0 NW 28 43 15 23 - - 0.0
 
Date/Time
EST
Temp
°C
App
Temp
°C
Dew
Point
Rel
Hum
%
Delta-T
°C
Wind Press
QNH
hPa
Press
MSL
hPa
Rain
since 9 am
mm
Dir
 
Spd
km/h
Gust
km/h
Spd
kts
Gust
kts
30/11:57pm 10.3 3.7 6.1 75 2.0 WNW 30 48 16 26 - - 0.0
30/11:30pm 10.2 3.7 6.4 77 1.9 NW 30 46 16 25 - - 0.0
30/11:19pm 10.3 3.2 6.5 77 1.9 NW 33 52 18 28 - - 0.0
30/11:00pm 10.2 2.8 6.7 79 1.7 NW 35 46 19 25 - - 0.0
30/10:30pm 10.5 3.5 6.8 78 1.8 NW 33 52 18 28 - - 0.0
30/10:15pm 10.1 4.0 6.8 80 1.6 NW 28 46 15 25 - - 0.0
30/10:00pm 10.0 4.3 6.7 80 1.6 NW 26 35 14 19 - - 0.0
30/09:30pm 9.9 5.3 6.6 80 1.6 NW 20 32 11 17 - - 0.0
30/09:00pm 9.9 5.5 6.6 80 1.6 NW 19 26 10 14 - - 0.0
30/08:30pm 10.8 5.9 6.9 77 1.9 NW 22 32 12 17 - - 0.0
30/08:00pm 10.6 6.3 6.9 78 1.8 NW 19 22 10 12 - - 0.0
30/07:30pm 10.7 6.7 6.8 77 1.9 NW 17 20 9 11 - - 0.0
30/07:00pm 10.6 7.4 6.7 77 1.9 WNW 13 19 7 10 - - 0.0
30/06:30pm 10.5 6.6 7.0 79 1.7 WNW 17 20 9 11 - - 0.0
30/06:00pm 10.6 6.1 6.9 78 1.8 WNW 20 30 11 16 - - 0.0
30/05:30pm 11.0 5.7 6.9 76 2.0 WNW 24 35 13 19 - - 0.0
30/05:00pm 11.8 6.5 6.9 72 2.5 WNW 24 33 13 18 - - 0.0
30/04:30pm 12.5 7.3 7.2 70 2.7 WNW 24 33 13 18 - - 0.0
30/04:00pm 12.4 6.5 7.3 71 2.6 WNW 28 43 15 23 - - 0.0
30/03:32pm 12.5 6.5 7.0 69 2.8 NW 28 52 15 28 - - 0.0
30/03:30pm 12.6 7.0 7.3 70 2.7 NW 26 48 14 26 - - 0.0
30/03:11pm 14.7 9.0 8.4 66 3.3 NW 28 50 15 27 - - 0.0
30/03:00pm 15.0 10.0 9.4 69 3.0 NW 26 44 14 24 - - 0.0
30/02:55pm 14.3 8.4 7.4 63 3.6 NW 28 46 15 25 - - 0.0
30/02:30pm 15.1 10.2 9.9 71 2.8 NW 26 44 14 24 - - 0.0
30/02:00pm 15.1 9.9 9.0 67 3.3 NW 26 50 14 27 - - 0.0
30/01:52pm 15.1 9.5 8.8 66 3.4 NW 28 50 15 27 - - 0.0
30/01:30pm 15.5 10.6 9.8 69 3.1 NW 26 43 14 23 - - 0.0
30/01:00pm 12.4 6.3 8.3 76 2.1 NW 30 41 16 22 - - 0.0
30/12:30pm 13.5 7.2 8.8 73 2.5 NW 32 46 17 25 - - 0.0
30/12:00pm 13.0 6.0 8.3 73 2.4 NW 35 52 19 28 - - 0.0
30/11:38am 14.0 8.2 9.4 74 2.5 NW 30 48 16 26 - - 0.0
30/11:30am 13.6 7.3 8.9 73 2.5 NW 32 44 17 24 - - 0.0
30/11:00am 13.5 8.4 9.2 75 2.3 WNW 26 37 14 20 - - 0.0
30/10:30am 10.8 4.9 7.7 81 1.6 NW 28 41 15 22 - - 0.0
30/10:00am 11.3 5.3 8.5 83 1.4 NW 30 39 16 21 - - 0.0
30/09:30am 9.6 3.3 7.2 85 1.2 NW 30 39 16 21 - - 0.0
30/09:00am 9.1 2.8 7.2 88 0.9 NW 30 37 16 20 - - 7.6
30/08:30am 9.1 3.5 7.2 88 0.9 NNW 26 35 14 19 - - 7.6
30/08:00am 9.4 3.8 7.3 87 1.0 NNW 26 35 14 19 - - 7.6
30/07:30am 8.8 3.6 7.3 90 0.7 NNW 24 32 13 17 - - 7.6
30/07:00am 8.6 4.3 7.2 91 0.7 NNW 19 24 10 13 - - 7.6
30/06:30am 8.7 4.5 7.3 91 0.7 NNW 19 28 10 15 - - 7.6
30/06:00am 8.8 3.6 7.3 90 0.7 NW 24 33 13 18 - - 7.6
30/05:30am 8.8 3.3 7.4 91 0.7 NW 26 46 14 25 - - 7.6
30/05:03am 8.8 2.5 7.3 90 0.7 NW 30 48 16 26 - - 7.6
30/05:00am 8.8 2.9 7.4 91 0.7 NW 28 39 15 21 - - 7.6
30/04:39am 8.8 2.5 7.4 91 0.7 NW 30 48 16 26 - - 7.6
30/04:30am 8.8 2.5 7.4 91 0.7 NW 30 41 16 22 - - 7.6
30/04:04am 8.7 2.0 7.3 91 0.7 NW 32 50 17 27 - - 7.6
30/04:00am 8.6 1.9 7.4 92 0.6 NW 32 44 17 24 - - 7.6
30/03:43am 8.8 2.5 7.6 92 0.6 NW 30 50 16 27 - - 7.6
30/03:30am 8.8 1.9 7.4 91 0.7 WNW 33 48 18 26 - - 7.6
30/03:00am 8.8 1.5 7.4 91 0.7 WNW 35 52 19 28 - - 7.6
30/02:33am 8.8 2.0 7.7 93 0.5 NW 33 56 18 30 - - 7.6
30/02:30am 8.8 2.2 7.7 93 0.5 NW 32 43 17 23 - - 7.6
30/02:02am 9.1 2.3 7.5 90 0.8 WNW 33 52 18 28 - - 7.6
30/02:00am 9.0 1.8 7.5 90 0.7 WNW 35 52 19 28 - - 7.6
30/01:41am 8.8 0.0 7.3 90 0.7 WNW 43 61 23 33 - - 7.6
30/01:30am 8.9 -0.5 7.2 89 0.8 WNW 46 59 25 32 - - 7.6
30/01:12am 8.7 0.7 7.6 93 0.5 WNW 39 61 21 33 - - 7.6
30/01:00am 8.9 2.1 7.8 93 0.6 WNW 33 43 18 23 - - 7.6
30/12:30am 8.9 1.3 7.7 92 0.6 WNW 37 54 20 29 - - 7.6
30/12:00am 9.1 0.5 8.2 94 0.5 WNW 43 54 23 29 - - 7.6
 
Date/Time
EST
Temp
°C
App
Temp
°C
Dew
Point
Rel
Hum
%
Delta-T
°C
Wind Press
QNH
hPa
Press
MSL
hPa
Rain
since 9 am
mm
Dir
 
Spd
km/h
Gust
km/h
Spd
kts
Gust
kts
29/11:30pm 9.3 2.0 8.7 96 0.3 WNW 37 46 20 25 - - 7.6
29/11:00pm 9.3 2.4 8.8 97 0.3 WNW 35 44 19 24 - - 7.6
29/10:30pm 9.3 2.0 8.8 97 0.3 WNW 37 46 20 25 - - 7.4
29/10:00pm 9.5 4.3 9.0 97 0.3 NW 26 39 14 21 - - 7.4
29/09:30pm 9.5 4.0 9.0 97 0.3 NW 28 39 15 21 - - 7.4
29/09:00pm 9.6 4.1 9.1 97 0.3 WNW 28 37 15 20 - - 7.2
29/08:34pm 9.6 3.6 8.8 95 0.4 NW 30 48 16 26 - - 7.2
29/08:30pm 9.6 3.1 8.8 95 0.4 WNW 33 48 18 26 - - 7.2
29/08:03pm 9.7 3.4 9.1 96 0.3 WNW 32 50 17 27 - - 7.2
29/08:00pm 9.7 3.5 9.2 97 0.3 WNW 32 41 17 22 - - 7.2
29/07:36pm 9.9 2.4 9.4 97 0.3 WNW 39 57 21 31 - - 7.2
29/07:30pm 9.9 1.6 9.4 97 0.3 WNW 43 57 23 31 - - 7.2
29/07:25pm 10.0 2.9 9.5 97 0.3 WNW 37 56 20 30 - - 7.2
29/07:00pm 10.0 4.6 9.5 97 0.3 WNW 28 39 15 21 - - 7.0
29/06:30pm 10.0 5.7 9.5 97 0.3 WNW 22 30 12 16 - - 6.6
29/06:00pm 10.2 5.2 9.7 97 0.3 NW 26 41 14 22 - - 6.4
29/05:30pm 10.8 6.0 10.3 97 0.3 NW 26 37 14 20 - - 5.8
29/05:00pm 10.9 5.4 10.4 97 0.3 NW 30 43 16 23 - - 4.8
29/04:46pm 11.0 5.9 10.5 97 0.3 NNW 28 46 15 25 - - 4.6
29/04:30pm 11.1 6.8 10.6 97 0.3 N 24 35 13 19 - - 4.2
29/04:00pm 11.2 7.3 10.7 97 0.3 NNW 22 32 12 17 - - 3.8
29/03:30pm 11.3 6.3 10.8 97 0.3 N 28 46 15 25 - - 2.4
29/03:29pm 11.3 6.3 10.8 97 0.3 N 28 46 15 25 - - 2.4
29/03:00pm 11.6 8.3 10.8 95 0.4 NNE 19 26 10 14 - - 1.0
29/02:30pm 12.2 10.0 10.8 91 0.8 N 13 22 7 12 - - 0.2
29/02:00pm 12.7 10.2 10.9 89 1.0 N 15 24 8 13 - - 0.0
29/01:30pm 13.1 10.3 11.2 88 1.0 N 17 24 9 13 - - 0.0
29/01:00pm 12.9 10.5 11.3 90 0.9 N 15 22 8 12 - - 0.0
29/12:30pm 13.0 10.2 11.2 89 1.0 NNW 17 28 9 15 - - 0.0
29/12:00pm 14.1 12.0 11.1 82 1.7 N 13 20 7 11 - - 0.0
29/11:30am 14.5 12.0 12.4 87 1.2 NNW 17 28 9 15 - - 0.0
29/11:00am 14.1 9.7 11.8 86 1.3 NNW 26 41 14 22 - - 0.0
29/10:30am 12.4 7.3 10.6 89 1.0 NW 28 46 15 25 - - 0.0
29/10:28am 12.5 7.5 11.1 91 0.8 NW 28 46 15 25 - - 0.0
29/10:00am 11.9 7.4 11.3 96 0.3 NW 26 44 14 24 - - 0.0
29/09:30am 10.9 8.3 10.6 98 0.2 NNW 15 22 8 12 - - 0.0
29/09:00am 10.6 6.6 10.3 98 0.2 N 22 32 12 17 - - 3.8
29/08:30am 10.4 5.9 10.1 98 0.2 NNW 24 39 13 21 - - 3.8
29/08:00am 10.2 5.7 10.1 99 0.1 NNW 24 33 13 18 - - 3.6
29/07:30am 9.9 7.0 9.8 99 0.1 NNW 15 20 8 11 - - 3.2
29/07:00am 9.8 6.9 9.5 98 0.2 N 15 24 8 13 - - 3.0
29/06:30am 9.6 6.6 9.3 98 0.2 N 15 28 8 15 - - 2.8
29/06:00am 9.5 7.3 9.2 98 0.2 N 11 17 6 9 - - 2.2
29/05:30am 9.4 7.1 9.1 98 0.2 N 11 17 6 9 - - 1.8
29/05:00am 9.2 6.9 8.9 98 0.2 N 11 17 6 9 - - 1.2
29/04:30am 9.1 6.4 8.8 98 0.2 N 13 26 7 14 - - 0.6
29/04:00am 9.0 7.0 8.7 98 0.2 NNE 9 15 5 8 - - 0.2
29/03:30am 8.8 6.8 8.5 98 0.2 NNE 9 19 5 10 - - 0.2
29/03:00am 8.7 5.9 8.4 98 0.2 NNE 13 20 7 11 - - 0.2
29/02:30am 8.5 6.0 8.2 98 0.2 NNE 11 17 6 9 - - 0.2
29/02:00am 8.3 5.8 8.0 98 0.2 NNE 11 17 6 9 - - 0.2
29/01:30am 8.2 5.6 7.9 98 0.1 NNE 11 17 6 9 - - 0.2
29/01:00am 8.3 6.1 7.9 97 0.2 NE 9 17 5 9 - - 0.2
29/12:30am 8.1 6.2 7.7 97 0.2 NE 7 11 4 6 - - 0.2
29/12:00am 8.0 5.4 7.6 97 0.2 ENE 11 17 6 9 - - 0.2
 
Date/Time
EST
Temp
°C
App
Temp
°C
Dew
Point
Rel
Hum
%
Delta-T
°C
Wind Press
QNH
hPa
Press
MSL
hPa
Rain
since 9 am
mm
Dir
 
Spd
km/h
Gust
km/h
Spd
kts
Gust
kts
28/11:30pm 7.5 4.7 6.9 96 0.3 ENE 11 17 6 9 - - 0.2
28/11:00pm 7.1 4.1 6.2 94 0.4 ENE 11 15 6 8 - - 0.2
28/10:30pm 7.2 4.6 6.1 93 0.5 ENE 9 11 5 6 - - 0.2
28/10:00pm 7.4 6.5 6.2 92 0.6 CALM 0 0 0 0 - - 0.2
28/09:30pm 7.2 4.2 6.0 92 0.6 NE 11 13 6 7 - - 0.2
28/09:00pm 7.1 5.0 5.6 90 0.7 WSW 6 9 3 5 - - 0.2
28/08:30pm 7.7 4.2 5.3 85 1.1 NNW 13 15 7 8 - - 0.2
28/08:00pm 7.3 4.1 5.3 87 0.9 NNW 11 15 6 8 - - 0.2
28/07:30pm 8.1 5.1 5.9 86 1.0 N 11 15 6 8 - - 0.2
28/07:00pm 7.9 4.5 5.7 86 1.0 WNW 13 15 7 8 - - 0.2
28/06:30pm 7.9 4.8 5.4 84 1.2 WNW 11 13 6 7 - - 0.2

Other Formats:

Comma delimited format used in spreadsheet applications
http://www.bom.gov.au/fwo/IDT60801/IDT60801.94977.axf

JavaScript Object Notation format (JSON) in row-major order
http://www.bom.gov.au/fwo/IDT60801/IDT60801.94977.json